Crystal Symphony — C6MY5 — position and weather

sailwx.info

Track history (hours):
 
Tides and Currents Weather Stations Pressure Air Temp Water Temp Dewpoint Dewpoint Depression Visibility Wind Speed Wind Dir Waves Ship Positions

Crystal Symphony

Operator: Crystal Cruises

Last reported at 2014-Oct-16 03:20 UTC. Time now 2014-Oct-24 13:32 UTC.
Position N 25°26' W 080°00'.
Warning: this ship's position is 8 days out of date.

Length 238 m; draft 8 m.

Type: Ship. MMSI: 309168000.

Date/timePositionNaut miles runAvg speedWind from/ knotsBaromVisibWave heightAir tempDewpointWater temp
2014-Oct-16 03:20N 25°26' W 080°00'1418.6
2014-Oct-16 02:33N 25°41' W 080°00'11 7.6
2014-Oct-16 01:07N 25°46' W 080°11'0 0.0
2014-Oct-16 00:33N 25°46' W 080°11'0 0.0
2014-Oct-15 23:27N 25°46' W 080°11'0 0.0
2014-Oct-15 22:33N 25°46' W 080°11'0 0.0
2014-Oct-15 21:29N 25°46' W 080°11'0 0.0
2014-Oct-15 19:33N 25°46' W 080°11'0 0.0
2014-Oct-15 18:25N 25°46' W 080°11'0 0.0
2014-Oct-15 17:30N 25°46' W 080°11'0 0.0
2014-Oct-15 16:24N 25°46' W 080°11'0 0.0
2014-Oct-15 15:17N 25°46' W 080°11'0 0.0
2014-Oct-15 14:29N 25°46' W 080°11'0 0.0
2014-Oct-15 13:32N 25°46' W 080°11'0 0.0
2014-Oct-15 12:31N 25°46' W 080°11'0 0.0
2014-Oct-15 11:19N 25°46' W 080°11'0 0.0
2014-Oct-15 10:04N 25°46' W 080°11'0 0.5
2014-Oct-15 09:24N 25°46' W 080°10'6 7.0
2014-Oct-15 08:34N 25°46' W 080°04'1211.7
2014-Oct-15 07:32N 25°52' W 079°52'1111.6
2014-Oct-15 06:33N 25°58' W 079°41'1211.6
2014-Oct-15 05:33N 26°04' W 079°30'  
2014-Oct-08 17:07N 35°39' W 036°18'3017.6
2014-Oct-08 15:25N 35°47' W 035°42'5117.4
2014-Oct-08 12:31N 36°00' W 034°42'5317.4
2014-Oct-08 09:28N 36°13' W 033°38'19219.2
2014-Oct-07 23:29N 36°55' W 029°45'1718.4
2014-Oct-07 22:32N 36°58' W 029°24'2318.4
2014-Oct-07 21:16N 37°03' W 028°55'3318.6
2014-Oct-07 19:29N 37°09' W 028°14'2018.6
2014-Oct-07 18:24N 37°13' W 027°49'1618.8
2014-Oct-07 17:33N 37°15' W 027°30'1918.7
2014-Oct-07 16:33N 37°19' W 027°07'1918.6
2014-Oct-07 15:33N 37°22' W 026°43'1818.3
2014-Oct-07 14:34N 37°25' W 026°21'1818.4
2014-Oct-07 13:34N 37°28' W 025°58'1918.5
2014-Oct-07 12:33N 37°31' W 025°35'1918.7
2014-Oct-07 11:33N 37°34' W 025°11'1818.1
2014-Oct-07 10:33N 37°37' W 024°49'1818.3
2014-Oct-07 09:33N 37°39' W 024°26'1918.7
2014-Oct-07 08:33N 37°42' W 024°03'1918.7
2014-Oct-07 07:33N 37°45' W 023°39'  
Track history (hours):
 
Tides and Currents Weather Stations Pressure Air Temp Water Temp Dewpoint Dewpoint Depression Visibility Wind Speed Wind Dir Waves Ship Positions

Crystal Symphony

Operator: Crystal Cruises

Last reported at 2014-Oct-16 03:20 UTC. Time now 2014-Oct-24 13:32 UTC.
Position N 25°26' W 080°00'.
Warning: this ship's position is 8 days out of date.

Length 238 m; draft 8 m.

Type: Ship. MMSI: 309168000.

Date/timePositionNaut miles runAvg speedWind from/ knotsBaromVisibWave heightAir tempDewpointWater temp
2014-Oct-16 03:20N 25°26' W 080°00'1418.6
2014-Oct-16 02:33N 25°41' W 080°00'11 7.6
2014-Oct-16 01:07N 25°46' W 080°11'0 0.0
2014-Oct-16 00:33N 25°46' W 080°11'0 0.0
2014-Oct-15 23:27N 25°46' W 080°11'0 0.0
2014-Oct-15 22:33N 25°46' W 080°11'0 0.0
2014-Oct-15 21:29N 25°46' W 080°11'0 0.0
2014-Oct-15 19:33N 25°46' W 080°11'0 0.0
2014-Oct-15 18:25N 25°46' W 080°11'0 0.0
2014-Oct-15 17:30N 25°46' W 080°11'0 0.0
2014-Oct-15 16:24N 25°46' W 080°11'0 0.0
2014-Oct-15 15:17N 25°46' W 080°11'0 0.0
2014-Oct-15 14:29N 25°46' W 080°11'0 0.0
2014-Oct-15 13:32N 25°46' W 080°11'0 0.0
2014-Oct-15 12:31N 25°46' W 080°11'0 0.0
2014-Oct-15 11:19N 25°46' W 080°11'0 0.0
2014-Oct-15 10:04N 25°46' W 080°11'0 0.5
2014-Oct-15 09:24N 25°46' W 080°10'6 7.0
2014-Oct-15 08:34N 25°46' W 080°04'1211.7
2014-Oct-15 07:32N 25°52' W 079°52'1111.6
2014-Oct-15 06:33N 25°58' W 079°41'1211.6
2014-Oct-15 05:33N 26°04' W 079°30'  
2014-Oct-08 17:07N 35°39' W 036°18'3017.6
2014-Oct-08 15:25N 35°47' W 035°42'5117.4
2014-Oct-08 12:31N 36°00' W 034°42'5317.4
2014-Oct-08 09:28N 36°13' W 033°38'19219.2
2014-Oct-07 23:29N 36°55' W 029°45'1718.4
2014-Oct-07 22:32N 36°58' W 029°24'2318.4
2014-Oct-07 21:16N 37°03' W 028°55'3318.6
2014-Oct-07 19:29N 37°09' W 028°14'2018.6
2014-Oct-07 18:24N 37°13' W 027°49'1618.8
2014-Oct-07 17:33N 37°15' W 027°30'1918.7
2014-Oct-07 16:33N 37°19' W 027°07'1918.6
2014-Oct-07 15:33N 37°22' W 026°43'1818.3
2014-Oct-07 14:34N 37°25' W 026°21'1818.4
2014-Oct-07 13:34N 37°28' W 025°58'1918.5
2014-Oct-07 12:33N 37°31' W 025°35'1918.7
2014-Oct-07 11:33N 37°34' W 025°11'1818.1
2014-Oct-07 10:33N 37°37' W 024°49'1818.3
2014-Oct-07 09:33N 37°39' W 024°26'1918.7
2014-Oct-07 08:33N 37°42' W 024°03'1918.7
2014-Oct-07 07:33N 37°45' W 023°39'  

Dump ship's entire track history